Terminal Aerodrome Forecast
Issued by NWS

Home | Current Version | Previous Version | Text Only | Print | Product List | Glossary On
Versions: 1 2 3 4 5 6 7 8 9 10 11 12 13 14 15 16 17 18 19 20 21 22 23 24 25 26 27 28 29 30 31 32
000
FTUS41 KBOX 300536
TAFBAF
TAF
KBAF 300536Z 3006/3106 06003KT P6SM OVC011
     FM300900 VRB03KT 4SM BR BKN008
     FM301200 16004KT P6SM OVC008
     FM301300 16004KT P6SM OVC020
     FM310100 17006KT P6SM VCSH BKN020
     FM310300 17005KT P6SM VCSH OVC010=

USA.gov is the U.S. government's official web portal to all federal, state and local government web resources and services.